createdAt,value
2022-07-31T00:00:20.531Z,32.50
2022-07-31T00:02:47.088Z,32.65
2022-07-31T00:05:13.965Z,33.10
2022-07-31T00:07:40.703Z,32.83
2022-07-31T00:10:08.224Z,32.76
2022-07-31T00:12:35.123Z,32.85
2022-07-31T00:15:04.145Z,33.12
2022-07-31T00:17:32.590Z,33.23
2022-07-31T00:19:59.448Z,33.08
2022-07-31T00:22:25.980Z,33.16
2022-07-31T00:24:52.463Z,33.10
2022-07-31T00:27:18.946Z,33.14
2022-07-31T00:29:45.447Z,33.46
2022-07-31T00:32:11.967Z,33.59
2022-07-31T00:34:38.492Z,33.87
2022-07-31T00:37:05.515Z,33.94
2022-07-31T00:39:32.652Z,33.89
2022-07-31T00:41:59.243Z,33.61
2022-07-31T00:44:26.033Z,33.91
2022-07-31T00:46:52.718Z,33.90
2022-07-31T00:49:19.882Z,33.86
2022-07-31T00:51:46.818Z,33.81
2022-07-31T00:54:18.620Z,33.56
2022-07-31T00:56:50.290Z,33.84
2022-07-31T00:59:16.897Z,34.55
2022-07-31T01:01:51.083Z,33.86
2022-07-31T01:04:19.023Z,34.32
2022-07-31T01:06:47.100Z,34.15
2022-07-31T01:09:14.694Z,34.17
2022-07-31T01:12:06.020Z,34.81
2022-07-31T01:14:38.883Z,34.98
2022-07-31T01:17:07.181Z,35.00
2022-07-31T01:19:43.618Z,35.11
2022-07-31T01:22:44.186Z,35.34
2022-07-31T01:25:13.680Z,35.02
2022-07-31T01:28:27.732Z,35.01
2022-07-31T01:31:27.747Z,35.24
2022-07-31T01:34:08.203Z,35.64
2022-07-31T01:36:39.591Z,35.71
2022-07-31T01:39:06.389Z,35.43
2022-07-31T01:41:39.580Z,36.54
2022-07-31T01:44:07.833Z,36.31
2022-07-31T01:46:43.685Z,35.84
2022-07-31T01:49:12.517Z,36.31
2022-07-31T01:51:41.665Z,36.08
2022-07-31T01:54:08.817Z,36.02
2022-07-31T01:56:37.782Z,36.04
2022-07-31T01:59:05.728Z,36.42
2022-07-31T02:01:50.714Z,36.09
2022-07-31T02:04:19.817Z,36.45
2022-07-31T02:06:51.030Z,36.43
2022-07-31T02:09:19.952Z,36.82
2022-07-31T02:11:53.707Z,36.79
2022-07-31T02:14:22.830Z,36.61
2022-07-31T02:16:50.106Z,36.69
2022-07-31T02:19:17.338Z,36.90
2022-07-31T02:21:43.939Z,36.80
2022-07-31T02:24:10.551Z,36.93
2022-07-31T02:26:39.231Z,37.28
2022-07-31T02:29:08.531Z,37.40
2022-07-31T02:32:02.844Z,37.24
2022-07-31T02:34:31.549Z,37.35
2022-07-31T02:37:00.593Z,37.38
2022-07-31T02:39:30.594Z,37.54
2022-07-31T02:42:01.228Z,37.46
2022-07-31T02:44:31.200Z,37.39
2022-07-31T02:46:59.537Z,37.51
2022-07-31T02:49:27.687Z,37.53
2022-07-31T02:51:55.679Z,37.75
2022-07-31T02:54:24.879Z,37.68
2022-07-31T02:56:53.435Z,37.97
2022-07-31T02:59:19.858Z,37.51
2022-07-31T03:01:47.039Z,37.44
2022-07-31T03:04:13.788Z,37.83
2022-07-31T03:06:40.451Z,37.75
2022-07-31T03:09:07.174Z,38.08
2022-07-31T03:11:33.702Z,38.00
2022-07-31T03:14:03.330Z,37.98
2022-07-31T03:16:31.257Z,38.40
2022-07-31T03:18:57.874Z,38.35
2022-07-31T03:21:25.216Z,38.63
2022-07-31T03:23:52.099Z,38.75
2022-07-31T03:26:19.058Z,38.98
2022-07-31T03:28:45.763Z,38.86
2022-07-31T03:31:12.405Z,38.84
2022-07-31T03:33:38.928Z,38.84
2022-07-31T03:36:06.098Z,38.93
2022-07-31T03:38:40.720Z,39.00
2022-07-31T03:41:09.215Z,38.86
2022-07-31T03:43:44.223Z,38.96
2022-07-31T03:46:17.331Z,39.03
2022-07-31T03:48:44.826Z,39.07
2022-07-31T03:51:11.540Z,38.95
2022-07-31T03:53:38.617Z,39.10
2022-07-31T03:56:07.178Z,39.24
2022-07-31T03:58:34.055Z,38.65
2022-07-31T04:01:04.619Z,39.16
2022-07-31T04:03:34.866Z,38.98
2022-07-31T04:06:01.455Z,38.96
2022-07-31T04:08:27.982Z,38.72
2022-07-31T04:10:54.473Z,39.05
2022-07-31T04:13:20.997Z,38.73
2022-07-31T04:15:47.639Z,38.86
2022-07-31T04:18:14.164Z,38.69
2022-07-31T04:20:40.719Z,38.81
2022-07-31T04:23:07.311Z,38.85
2022-07-31T04:25:33.915Z,39.08
2022-07-31T04:28:01.433Z,38.49
2022-07-31T04:30:27.958Z,38.87
2022-07-31T04:32:54.497Z,38.71
2022-07-31T04:35:22.119Z,38.67
2022-07-31T04:37:48.747Z,38.31
2022-07-31T04:40:15.969Z,38.48
2022-07-31T04:42:42.677Z,38.35
2022-07-31T04:45:09.714Z,38.49
2022-07-31T04:47:37.141Z,38.36
2022-07-31T04:50:04.788Z,38.55
2022-07-31T04:52:31.322Z,38.19
2022-07-31T04:54:57.818Z,38.15
2022-07-31T04:57:24.339Z,38.15
2022-07-31T04:59:57.837Z,38.41
2022-07-31T05:02:26.571Z,37.82
2022-07-31T05:04:56.635Z,37.83
2022-07-31T05:07:24.079Z,37.69
2022-07-31T05:09:54.205Z,37.80
2022-07-31T05:12:20.737Z,37.88
2022-07-31T05:14:47.253Z,37.79
2022-07-31T05:17:13.859Z,37.73
2022-07-31T05:19:40.393Z,37.62
2022-07-31T05:22:07.223Z,37.59
2022-07-31T05:24:34.315Z,38.00
2022-07-31T05:27:02.463Z,38.24
2022-07-31T05:29:29.693Z,38.45
2022-07-31T05:31:59.574Z,38.23
2022-07-31T05:34:26.659Z,38.43
2022-07-31T05:36:56.412Z,38.17
2022-07-31T05:39:23.026Z,38.23
2022-07-31T05:41:51.363Z,38.34
2022-07-31T05:44:17.864Z,38.12
2022-07-31T05:46:44.357Z,38.37
2022-07-31T05:49:11.007Z,38.66
2022-07-31T05:51:37.610Z,38.46
2022-07-31T05:54:04.144Z,38.66
2022-07-31T05:56:30.625Z,38.21
2022-07-31T05:58:57.122Z,38.10
2022-07-31T06:01:24.158Z,38.50
2022-07-31T06:03:52.120Z,38.71
2022-07-31T06:06:19.226Z,38.70
2022-07-31T06:08:45.790Z,38.60
2022-07-31T06:11:12.327Z,38.54
2022-07-31T06:13:38.917Z,38.46
2022-07-31T06:16:12.106Z,38.46
2022-07-31T06:18:38.618Z,37.96
2022-07-31T06:21:05.156Z,37.78
2022-07-31T06:23:32.328Z,37.51
2022-07-31T06:25:59.011Z,37.87
2022-07-31T06:28:37.845Z,37.50
2022-07-31T06:31:22.083Z,37.10
2022-07-31T06:33:49.678Z,37.32
2022-07-31T06:36:17.436Z,37.46
2022-07-31T06:38:43.943Z,36.93
2022-07-31T06:41:10.450Z,37.08
2022-07-31T06:43:37.126Z,37.40
2022-07-31T06:46:03.658Z,36.92
2022-07-31T06:48:30.189Z,37.24
2022-07-31T06:51:14.525Z,37.13
2022-07-31T06:53:43.236Z,37.25
2022-07-31T06:56:09.735Z,37.03
2022-07-31T06:58:36.270Z,36.77
2022-07-31T07:01:02.837Z,36.55
2022-07-31T07:03:29.432Z,36.72
2022-07-31T07:05:55.943Z,36.31
2022-07-31T07:08:22.597Z,36.36
2022-07-31T07:10:49.113Z,36.74
2022-07-31T07:13:15.617Z,36.57
2022-07-31T07:15:42.097Z,36.04
2022-07-31T07:18:08.619Z,35.81
2022-07-31T07:20:35.177Z,35.54
2022-07-31T07:23:01.675Z,35.35
2022-07-31T07:25:28.806Z,35.28
2022-07-31T07:27:56.667Z,35.25
2022-07-31T07:30:23.773Z,35.20
2022-07-31T07:32:50.278Z,34.76
2022-07-31T07:35:16.882Z,34.77
2022-07-31T07:37:43.368Z,34.38
2022-07-31T07:40:10.169Z,34.31
2022-07-31T07:42:36.672Z,34.05
2022-07-31T07:45:08.324Z,34.03
2022-07-31T07:48:02.271Z,33.89
2022-07-31T07:50:22.814Z,33.90
2022-07-31T07:52:54.200Z,34.30
2022-07-31T07:55:20.730Z,33.88
2022-07-31T07:57:47.268Z,33.83
2022-07-31T08:00:14.340Z,34.21
2022-07-31T08:02:42.571Z,33.96
2022-07-31T08:05:09.284Z,33.98
2022-07-31T08:07:41.833Z,34.23
2022-07-31T08:10:09.984Z,33.93
2022-07-31T08:12:37.003Z,34.82
2022-07-31T08:15:04.531Z,34.96
2022-07-31T08:17:31.180Z,34.31
2022-07-31T08:19:57.748Z,34.82
2022-07-31T08:22:24.271Z,34.26
2022-07-31T08:24:50.799Z,33.54
2022-07-31T08:27:39.577Z,33.57
2022-07-31T08:30:08.305Z,32.87
2022-07-31T08:32:34.940Z,32.35
2022-07-31T08:35:01.728Z,32.53
2022-07-31T08:38:01.378Z,32.58
2022-07-31T08:40:18.019Z,32.66
2022-07-31T08:42:46.280Z,32.55
2022-07-31T08:45:14.130Z,32.51
2022-07-31T08:47:42.220Z,32.61
2022-07-31T08:50:12.132Z,32.63
2022-07-31T08:52:41.887Z,32.64
2022-07-31T08:55:09.460Z,32.97
2022-07-31T08:57:36.959Z,33.00
2022-07-31T09:00:09.983Z,33.09
2022-07-31T09:02:39.204Z,32.90
2022-07-31T09:05:06.036Z,33.40
2022-07-31T09:07:32.523Z,33.26
2022-07-31T09:09:59.068Z,33.53
2022-07-31T09:12:34.475Z,33.62
2022-07-31T09:15:01.617Z,33.23
2022-07-31T09:17:33.382Z,33.34
2022-07-31T09:20:00.392Z,32.98
2022-07-31T09:22:31.350Z,33.45
2022-07-31T09:25:08.726Z,33.64
2022-07-31T09:27:35.225Z,33.31
2022-07-31T09:30:02.251Z,33.45
2022-07-31T09:32:28.751Z,33.61
2022-07-31T09:34:55.298Z,33.47
2022-07-31T09:37:25.780Z,33.79
2022-07-31T09:39:54.255Z,33.74
2022-07-31T09:42:21.653Z,33.58
2022-07-31T09:44:50.031Z,33.53
2022-07-31T09:47:21.885Z,33.68
2022-07-31T09:49:56.696Z,33.76
2022-07-31T09:52:23.258Z,34.20
2022-07-31T09:55:01.111Z,34.66
2022-07-31T09:57:28.108Z,34.31
2022-07-31T09:59:55.563Z,34.34
2022-07-31T10:02:27.920Z,34.56
2022-07-31T10:04:57.258Z,34.49
2022-07-31T10:07:32.686Z,34.70
2022-07-31T10:10:01.218Z,34.45
2022-07-31T10:12:29.745Z,34.47
2022-07-31T10:14:58.843Z,34.12
2022-07-31T10:17:34.956Z,34.54
2022-07-31T10:20:05.612Z,34.51
2022-07-31T10:22:40.360Z,34.80
2022-07-31T10:25:12.652Z,34.57
2022-07-31T10:27:40.845Z,34.58
2022-07-31T10:30:08.450Z,34.94
2022-07-31T10:32:35.802Z,34.61
2022-07-31T10:35:05.810Z,35.18
2022-07-31T10:37:38.581Z,35.14
2022-07-31T10:40:33.947Z,35.14
2022-07-31T10:43:11.868Z,35.51
2022-07-31T10:45:51.976Z,35.01
2022-07-31T10:48:19.870Z,34.99
2022-07-31T10:50:47.359Z,35.02
2022-07-31T10:53:16.807Z,34.95
2022-07-31T10:55:43.956Z,35.34
2022-07-31T10:58:19.794Z,35.48
2022-07-31T11:00:46.354Z,35.21
2022-07-31T11:03:16.141Z,35.50
2022-07-31T11:06:01.004Z,35.87
2022-07-31T11:08:40.965Z,35.61
2022-07-31T11:11:07.614Z,35.41
2022-07-31T11:13:45.566Z,35.68
2022-07-31T11:16:12.329Z,35.52
2022-07-31T11:18:39.018Z,35.50
2022-07-31T11:21:38.063Z,35.70
2022-07-31T11:24:02.301Z,35.13
2022-07-31T11:26:33.026Z,34.84
2022-07-31T11:29:00.130Z,35.00
2022-07-31T11:31:46.647Z,34.60
2022-07-31T11:34:13.123Z,34.97
2022-07-31T11:36:44.112Z,34.25
2022-07-31T11:39:13.041Z,34.17
2022-07-31T11:41:44.354Z,34.22
2022-07-31T11:44:12.216Z,33.69
2022-07-31T11:46:38.757Z,33.66
2022-07-31T11:49:05.817Z,33.65
2022-07-31T11:51:32.392Z,33.69
2022-07-31T11:54:00.002Z,33.73
2022-07-31T11:56:27.671Z,33.52
2022-07-31T11:58:57.496Z,33.49
2022-07-31T12:01:27.328Z,33.45
2022-07-31T12:03:53.914Z,33.50
2022-07-31T12:06:21.674Z,34.01
2022-07-31T12:08:49.948Z,33.54
2022-07-31T12:11:20.581Z,34.01
2022-07-31T12:13:48.843Z,34.04
2022-07-31T12:16:16.375Z,34.01
2022-07-31T12:18:58.985Z,33.46
2022-07-31T12:21:33.946Z,33.34
2022-07-31T12:24:01.068Z,34.10
2022-07-31T12:26:30.511Z,33.96
2022-07-31T12:28:58.334Z,34.57
2022-07-31T12:31:25.386Z,35.29
2022-07-31T12:33:51.998Z,35.30
2022-07-31T12:36:18.709Z,35.22
2022-07-31T12:38:48.335Z,35.34
2022-07-31T12:41:15.656Z,35.10
2022-07-31T12:43:51.496Z,34.76
2022-07-31T12:46:34.928Z,34.84
2022-07-31T12:49:01.565Z,34.83
2022-07-31T12:51:44.986Z,34.88
2022-07-31T12:54:15.824Z,34.92
2022-07-31T12:56:43.000Z,34.71
2022-07-31T12:59:10.314Z,34.95
2022-07-31T13:01:37.553Z,35.06
2022-07-31T13:04:07.861Z,35.17
2022-07-31T13:06:44.585Z,35.01
2022-07-31T13:09:11.086Z,35.55
2022-07-31T13:11:46.680Z,36.01
2022-07-31T13:14:19.804Z,36.11
2022-07-31T13:16:48.430Z,35.93
2022-07-31T13:19:15.726Z,36.09
2022-07-31T13:21:49.195Z,35.98
2022-07-31T13:24:20.389Z,35.33
2022-07-31T13:26:48.399Z,35.58
2022-07-31T13:29:15.489Z,35.26
2022-07-31T13:31:42.205Z,35.53
2022-07-31T13:34:08.744Z,35.58
2022-07-31T13:36:38.815Z,35.14
2022-07-31T13:39:06.859Z,35.22
2022-07-31T13:41:35.319Z,35.30
2022-07-31T13:44:02.608Z,35.30
2022-07-31T13:46:29.434Z,35.45
2022-07-31T13:48:59.559Z,35.09
2022-07-31T13:51:28.935Z,35.30
2022-07-31T13:53:55.756Z,35.00
2022-07-31T13:56:34.044Z,35.18
2022-07-31T13:59:06.774Z,34.69
2022-07-31T14:02:03.325Z,34.59
2022-07-31T14:04:23.536Z,34.54
2022-07-31T14:06:50.723Z,34.49
2022-07-31T14:09:19.150Z,34.83
2022-07-31T14:11:45.749Z,34.66
2022-07-31T14:14:12.381Z,34.82
2022-07-31T14:16:39.533Z,34.44
2022-07-31T14:19:06.048Z,34.51
2022-07-31T14:21:34.546Z,33.91
2022-07-31T14:24:01.105Z,34.39
2022-07-31T14:26:27.598Z,34.20
2022-07-31T14:28:54.166Z,33.84
2022-07-31T14:31:20.736Z,34.24
2022-07-31T14:33:47.403Z,34.12
2022-07-31T14:36:14.582Z,34.16
2022-07-31T14:38:41.141Z,33.70
2022-07-31T14:41:07.671Z,34.36
2022-07-31T14:43:34.193Z,34.14
2022-07-31T14:46:00.695Z,34.36
2022-07-31T14:48:27.457Z,34.14
2022-07-31T14:50:54.189Z,34.41
2022-07-31T14:53:20.724Z,34.63
2022-07-31T14:55:47.276Z,34.35
2022-07-31T14:58:13.781Z,34.39
2022-07-31T15:00:40.381Z,34.46
2022-07-31T15:03:07.329Z,34.82
2022-07-31T15:06:39.238Z,34.88
2022-07-31T15:08:20.441Z,34.79
2022-07-31T15:10:46.954Z,35.20
2022-07-31T15:13:13.519Z,34.65
2022-07-31T15:15:40.028Z,35.01
2022-07-31T15:18:06.506Z,34.87
2022-07-31T15:20:35.275Z,34.96
2022-07-31T15:23:02.145Z,35.02
2022-07-31T15:25:28.799Z,34.64
2022-07-31T15:27:55.330Z,35.10
2022-07-31T15:30:22.627Z,35.40
2022-07-31T15:32:52.055Z,36.25
2022-07-31T15:35:18.678Z,35.80
2022-07-31T15:37:45.785Z,35.92
2022-07-31T15:40:17.071Z,36.60
2022-07-31T15:42:46.494Z,36.23
2022-07-31T15:45:15.878Z,36.55
2022-07-31T15:47:43.894Z,36.26
2022-07-31T15:50:12.682Z,36.43
2022-07-31T15:52:39.668Z,36.23
2022-07-31T15:55:07.396Z,35.91
2022-07-31T15:57:33.886Z,35.91
2022-07-31T16:00:00.801Z,35.42
2022-07-31T16:02:27.376Z,35.91
2022-07-31T16:04:55.597Z,35.59
2022-07-31T16:08:34.120Z,35.56
2022-07-31T16:10:17.665Z,35.41
2022-07-31T16:12:48.594Z,35.58
2022-07-31T16:15:17.007Z,35.20
2022-07-31T16:17:44.313Z,35.31
2022-07-31T16:20:25.315Z,35.45
2022-07-31T16:22:58.018Z,35.71
2022-07-31T16:25:25.849Z,35.25
2022-07-31T16:27:52.974Z,35.48
2022-07-31T16:30:19.670Z,36.75
2022-07-31T16:32:46.157Z,37.95
2022-07-31T16:35:13.027Z,39.40
2022-07-31T16:37:52.320Z,39.39
2022-07-31T16:40:26.876Z,40.35
2022-07-31T16:42:56.251Z,40.68
2022-07-31T16:45:22.845Z,42.07
2022-07-31T16:47:51.458Z,43.04
2022-07-31T16:50:18.795Z,43.08
2022-07-31T16:52:45.337Z,44.10
2022-07-31T16:55:11.915Z,44.98
2022-07-31T16:57:38.422Z,44.65
2022-07-31T17:00:05.531Z,45.00
2022-07-31T17:02:32.029Z,45.33
2022-07-31T17:04:58.521Z,45.67
2022-07-31T17:07:25.039Z,45.80
2022-07-31T17:09:51.754Z,45.98
2022-07-31T17:12:20.317Z,46.13
2022-07-31T17:14:48.509Z,46.19
2022-07-31T17:17:15.638Z,46.52
2022-07-31T17:19:46.549Z,47.09
2022-07-31T17:22:17.501Z,47.03
2022-07-31T17:24:50.705Z,46.76
2022-07-31T17:27:18.379Z,46.63
2022-07-31T17:29:45.206Z,46.79
2022-07-31T17:32:11.783Z,46.67
2022-07-31T17:34:39.242Z,46.94
2022-07-31T17:37:07.072Z,46.84
2022-07-31T17:39:33.927Z,46.79
2022-07-31T17:42:00.538Z,47.17
2022-07-31T17:44:27.367Z,46.92
2022-07-31T17:46:54.786Z,46.32
2022-07-31T17:49:21.463Z,46.28
2022-07-31T17:51:59.234Z,46.34
2022-07-31T17:54:34.889Z,46.38
2022-07-31T17:57:02.088Z,47.12
2022-07-31T17:59:29.150Z,47.77
2022-07-31T18:02:02.078Z,48.51
2022-07-31T18:04:31.374Z,48.74
2022-07-31T18:06:58.979Z,48.91
2022-07-31T18:09:25.860Z,49.54
2022-07-31T18:11:53.433Z,49.88
2022-07-31T18:14:20.867Z,50.04
2022-07-31T18:16:51.625Z,50.00
2022-07-31T18:19:18.315Z,50.28
2022-07-31T18:21:44.836Z,50.44
2022-07-31T18:24:11.310Z,50.76
2022-07-31T18:26:37.888Z,50.38
2022-07-31T18:29:05.075Z,50.74
2022-07-31T18:31:35.365Z,51.00
2022-07-31T18:34:04.529Z,51.17
2022-07-31T18:36:31.871Z,50.05
2022-07-31T18:38:58.508Z,50.41
2022-07-31T18:41:25.055Z,51.03
2022-07-31T18:43:51.612Z,51.04
2022-07-31T18:46:19.911Z,50.78
2022-07-31T18:48:46.607Z,51.00
2022-07-31T18:51:13.238Z,51.45
2022-07-31T18:53:39.887Z,51.57
2022-07-31T18:56:06.411Z,51.88
2022-07-31T18:58:32.972Z,52.24
2022-07-31T19:00:59.524Z,52.03
2022-07-31T19:03:26.509Z,52.24
2022-07-31T19:05:53.601Z,52.19
2022-07-31T19:08:20.708Z,52.09
2022-07-31T19:10:49.337Z,52.39
2022-07-31T19:13:19.180Z,52.30
2022-07-31T19:15:47.446Z,52.28
2022-07-31T19:18:15.146Z,52.21
2022-07-31T19:21:00.295Z,52.11
2022-07-31T19:23:31.983Z,52.27
2022-07-31T19:26:03.674Z,52.08
2022-07-31T19:28:34.546Z,52.90
2022-07-31T19:31:01.150Z,51.99
2022-07-31T19:33:27.709Z,51.93
2022-07-31T19:36:00.882Z,51.87
2022-07-31T19:38:28.783Z,52.21
2022-07-31T19:40:55.509Z,52.29
2022-07-31T19:43:22.251Z,52.36
2022-07-31T19:46:00.545Z,52.27
2022-07-31T19:48:36.605Z,52.33
2022-07-31T19:51:03.517Z,52.45
2022-07-31T19:53:30.379Z,52.27
2022-07-31T19:55:57.397Z,52.27
2022-07-31T19:58:23.965Z,52.36
2022-07-31T20:00:50.524Z,52.44
2022-07-31T20:03:17.157Z,52.89
2022-07-31T20:05:43.744Z,53.09
2022-07-31T20:08:10.462Z,52.50
2022-07-31T20:10:37.233Z,52.58
2022-07-31T20:13:03.992Z,52.27
2022-07-31T20:15:50.863Z,52.28
2022-07-31T20:18:27.697Z,52.33
2022-07-31T20:21:06.834Z,52.73
2022-07-31T20:23:36.666Z,52.21
2022-07-31T20:26:03.551Z,52.32
2022-07-31T20:28:30.116Z,52.25
2022-07-31T20:30:56.725Z,52.48
2022-07-31T20:33:23.309Z,52.58
2022-07-31T20:35:50.596Z,52.92
2022-07-31T20:38:21.302Z,53.06
2022-07-31T20:40:53.485Z,52.84
2022-07-31T20:43:26.775Z,53.06
2022-07-31T20:45:57.077Z,52.89
2022-07-31T20:48:27.206Z,52.82
2022-07-31T20:50:53.776Z,52.39
2022-07-31T20:53:21.613Z,52.84
2022-07-31T20:55:50.054Z,52.90
2022-07-31T20:58:17.721Z,52.76
2022-07-31T21:00:45.345Z,52.56
2022-07-31T21:03:11.857Z,52.87
2022-07-31T21:05:38.477Z,52.80
2022-07-31T21:08:05.124Z,53.17
2022-07-31T21:10:31.765Z,53.22
2022-07-31T21:12:58.333Z,53.01
2022-07-31T21:15:40.951Z,53.18
2022-07-31T21:18:08.161Z,52.98
2022-07-31T21:20:52.013Z,53.54
2022-07-31T21:23:25.545Z,53.60
2022-07-31T21:25:54.097Z,53.14
2022-07-31T21:28:21.081Z,52.88
2022-07-31T21:30:47.772Z,52.82
2022-07-31T21:33:14.688Z,53.15
2022-07-31T21:35:41.495Z,53.17
2022-07-31T21:38:11.914Z,53.53
2022-07-31T21:40:40.302Z,53.59
2022-07-31T21:43:07.326Z,53.36
2022-07-31T21:45:50.809Z,53.57
2022-07-31T21:48:22.753Z,53.29
2022-07-31T21:50:49.678Z,53.41
2022-07-31T21:53:16.335Z,53.40
2022-07-31T21:55:42.906Z,53.58
2022-07-31T21:58:09.732Z,53.80
2022-07-31T22:00:36.935Z,53.88
2022-07-31T22:03:04.263Z,53.73
2022-07-31T22:05:50.267Z,53.81
2022-07-31T22:08:17.228Z,53.60
2022-07-31T22:10:44.426Z,54.09
2022-07-31T22:13:11.017Z,54.10
2022-07-31T22:15:55.386Z,53.95
2022-07-31T22:18:26.518Z,53.77
2022-07-31T22:20:53.890Z,54.01
2022-07-31T22:23:21.116Z,54.13
2022-07-31T22:25:49.081Z,54.14
2022-07-31T22:28:18.962Z,54.04
2022-07-31T22:30:46.256Z,53.82
2022-07-31T22:33:12.916Z,53.99
2022-07-31T22:35:40.812Z,53.92
2022-07-31T22:38:08.824Z,54.08
2022-07-31T22:40:35.724Z,54.13
2022-07-31T22:43:03.467Z,53.85
2022-07-31T22:45:30.430Z,54.20
2022-07-31T22:47:57.627Z,53.95
2022-07-31T22:50:24.485Z,54.18
2022-07-31T22:52:51.529Z,53.82
2022-07-31T22:55:18.128Z,54.17
2022-07-31T22:57:45.030Z,54.36
2022-07-31T23:00:15.434Z,54.79
2022-07-31T23:02:42.964Z,54.26
2022-07-31T23:05:10.423Z,54.21
2022-07-31T23:07:37.605Z,54.37
2022-07-31T23:10:07.901Z,55.00
2022-07-31T23:12:34.712Z,54.23
2022-07-31T23:15:01.226Z,54.33
2022-07-31T23:17:27.731Z,54.44
2022-07-31T23:19:54.808Z,54.29
2022-07-31T23:22:33.404Z,54.86
2022-07-31T23:25:03.409Z,54.57
2022-07-31T23:27:29.945Z,54.38
2022-07-31T23:29:56.524Z,54.64
2022-07-31T23:32:22.991Z,54.50
2022-07-31T23:34:49.501Z,54.56
2022-07-31T23:37:16.006Z,54.80
2022-07-31T23:39:42.527Z,54.67
2022-07-31T23:42:27.493Z,54.83
2022-07-31T23:44:54.060Z,54.31
2022-07-31T23:47:23.788Z,54.69
2022-07-31T23:49:50.302Z,54.58
2022-07-31T23:52:16.783Z,54.51
2022-07-31T23:54:43.298Z,54.64
2022-07-31T23:57:09.811Z,54.61
2022-07-31T23:59:36.351Z,54.62
